Time;durP1;ratioP1;P1;durP2;ratioP2;P2;SDS_P1;SDS_P2;PMS_P1;PMS_P2;Temp;Humidity;BMP_temperature;BMP_pressure;BME280_temperature;BME280_humidity;BME280_pressure;Samples;Min_cycle;Max_cycle;Signal;HPM_P1;HPM_P2
2020/12/05 00:01:06;;;;;;;46.83;18.02;;;;;;;-1.50;100.00;100392.52;1750307;82;20938;-76
2020/12/05 00:03:36;;;;;;;42.85;15.10;;;;;;;-1.48;100.00;100393.95;1750317;82;21201;-78
2020/12/05 00:06:03;;;;;;;42.03;16.27;;;;;;;-1.47;100.00;100398.83;1750229;82;20963;-77
2020/12/05 00:08:33;;;;;;;39.38;16.07;;;;;;;-1.47;100.00;100398.30;1750414;81;21576;-77
2020/12/05 00:11:02;;;;;;;51.15;19.32;;;;;;;-1.47;100.00;100390.23;1731637;82;21006;-76
2020/12/05 00:13:30;;;;;;;40.98;16.27;;;;;;;-1.46;100.00;100390.53;1738839;82;21164;-75
2020/12/05 00:15:57;;;;;;;44.30;17.35;;;;;;;-1.45;100.00;100385.45;1737478;82;21454;-76
2020/12/05 00:18:26;;;;;;;39.35;14.60;;;;;;;-1.45;100.00;100393.53;1747448;82;20907;-75
2020/12/05 00:20:54;;;;;;;52.10;17.92;;;;;;;-1.46;100.00;100393.22;1748557;82;20990;-75
2020/12/05 00:23:22;;;;;;;44.60;17.07;;;;;;;-1.44;100.00;100395.70;1735132;82;21164;-75
2020/12/05 00:25:50;;;;;;;47.45;15.98;;;;;;;-1.45;100.00;100397.56;1720550;83;21007;-79
2020/12/05 00:28:18;;;;;;;37.90;15.50;;;;;;;-1.47;100.00;100392.92;1722388;83;21370;-76
2020/12/05 00:30:46;;;;;;;45.30;18.32;;;;;;;-1.46;100.00;100395.92;1722604;83;20954;-76
2020/12/05 00:33:15;;;;;;;44.05;17.65;;;;;;;-1.45;100.00;100401.61;1722663;83;20947;-76
2020/12/05 00:35:43;;;;;;;45.45;16.45;;;;;;;-1.42;100.00;100397.13;1722649;83;21133;-76
2020/12/05 00:38:11;;;;;;;44.08;17.10;;;;;;;-1.41;100.00;100404.70;1722667;83;21006;-76
2020/12/05 00:40:39;;;;;;;51.48;18.92;;;;;;;-1.41;100.00;100411.42;1722639;83;21223;-77
2020/12/05 00:43:10;;;;;;;58.83;20.35;;;;;;;-1.41;100.00;100412.25;1722607;83;20919;-76
2020/12/05 00:45:38;;;;;;;49.03;18.65;;;;;;;-1.42;100.00;100411.95;1722620;83;20938;-76
2020/12/05 00:48:06;;;;;;;49.83;19.90;;;;;;;-1.41;100.00;100413.59;1722689;83;22060;-78
2020/12/05 00:50:35;;;;;;;45.48;17.57;;;;;;;-1.41;100.00;100414.95;1722677;83;21069;-76
2020/12/05 00:53:03;;;;;;;51.65;19.62;;;;;;;-1.40;100.00;100412.56;1722633;83;21373;-78
2020/12/05 00:55:31;;;;;;;46.53;17.35;;;;;;;-1.40;100.00;100411.21;1722579;83;21116;-79
2020/12/05 00:57:59;;;;;;;47.60;18.30;;;;;;;-1.41;100.00;100414.95;1724519;82;21568;-78
2020/12/05 01:00:27;;;;;;;50.35;19.20;;;;;;;-1.40;100.00;100411.73;1735427;82;21509;-76
2020/12/05 01:02:55;;;;;;;55.83;19.55;;;;;;;-1.39;100.00;100409.34;1735502;82;21501;-76
2020/12/05 01:05:23;;;;;;;53.23;18.25;;;;;;;-1.38;100.00;100412.34;1735394;82;21346;-75
2020/12/05 01:07:51;;;;;;;56.80;20.62;;;;;;;-1.38;100.00;100398.88;1735244;82;21094;-78
2020/12/05 01:10:19;;;;;;;56.42;20.08;;;;;;;-1.39;100.00;100399.39;1735368;82;20956;-77
2020/12/05 01:12:47;;;;;;;60.58;21.07;;;;;;;-1.38;100.00;100392.14;1735351;82;20967;-77
2020/12/05 01:15:15;;;;;;;59.40;20.70;;;;;;;-1.40;100.00;100385.63;1735359;82;21061;-76
2020/12/05 01:17:43;;;;;;;58.50;20.80;;;;;;;-1.39;100.00;100386.45;1735383;82;21218;-73
2020/12/05 01:20:11;;;;;;;45.55;15.55;;;;;;;-1.39;100.00;100381.06;1735275;82;21019;-74
2020/12/05 01:22:38;;;;;;;51.55;19.42;;;;;;;-1.42;100.00;100379.63;1735314;82;21137;-75
2020/12/05 01:25:08;;;;;;;45.92;18.00;;;;;;;-1.41;100.00;100390.70;1735339;82;20959;-75
2020/12/05 01:27:37;;;;;;;54.50;18.50;;;;;;;-1.43;100.00;100384.71;1735317;82;21466;-74
2020/12/05 01:30:05;;;;;;;51.48;19.52;;;;;;;-1.42;100.00;100385.02;1735318;82;21209;-74
2020/12/05 01:32:33;;;;;;;58.02;19.65;;;;;;;-1.44;100.00;100388.45;1735276;82;20994;-73
2020/12/05 01:35:01;;;;;;;63.13;21.97;;;;;;;-1.42;100.00;100386.88;1735330;82;20952;-74
2020/12/05 01:37:29;;;;;;;72.17;23.02;;;;;;;-1.41;100.00;100386.66;1735435;82;20939;-75
2020/12/05 01:39:58;;;;;;;77.35;22.98;;;;;;;-1.38;100.00;100391.62;1735343;82;21074;-74
2020/12/05 01:42:27;;;;;;;64.20;24.10;;;;;;;-1.37;100.00;100400.00;1735333;82;23605;-75
2020/12/05 01:44:56;;;;;;;62.75;20.80;;;;;;;-1.37;100.00;100401.35;1735247;82;20979;-73
2020/12/05 01:47:24;;;;;;;77.92;24.02;;;;;;;-1.38;100.00;100397.53;1735219;82;21019;-73
2020/12/05 01:49:52;;;;;;;71.20;24.92;;;;;;;-1.38;100.00;100399.70;1714490;82;21996;-74
2020/12/05 01:52:20;;;;;;;71.12;23.18;;;;;;;-1.38;100.00;100392.97;1714544;82;21065;-74
2020/12/05 01:54:48;;;;;;;81.92;25.20;;;;;;;-1.39;100.00;100399.39;1735443;82;21372;-76
2020/12/05 01:57:16;;;;;;;74.65;23.47;;;;;;;-1.41;100.00;100398.79;1735386;82;21078;-76
2020/12/05 01:59:43;;;;;;;74.97;22.93;;;;;;;-1.41;100.00;100398.79;1701768;83;21140;-76
2020/12/05 02:02:11;;;;;;;72.42;22.48;;;;;;;-1.40;100.00;100405.00;1722569;82;21108;-76
2020/12/05 02:05:11;;;;;;;74.05;24.32;;;;;;;-1.40;100.00;100407.17;1700226;83;21200;-74
2020/12/05 02:08:14;;;;;;;72.75;22.00;;;;;;;-1.39;100.00;100398.57;1722562;83;21150;-74
2020/12/05 02:10:46;;;;;;;72.05;24.95;;;;;;;-1.40;100.00;100397.74;1722184;83;20966;-74
2020/12/05 02:13:28;;;;;;;75.47;26.10;;;;;;;-1.40;100.00;100407.17;1722717;82;26583;-75
2020/12/05 02:15:56;;;;;;;72.42;22.52;;;;;;;-1.40;100.00;100403.13;1722727;83;20986;-74
2020/12/05 02:18:25;;;;;;;75.57;24.40;;;;;;;-1.38;100.00;100402.91;1699987;83;21034;-76
2020/12/05 02:20:53;;;;;;;78.02;24.18;;;;;;;-1.40;100.00;100394.22;1699962;83;21381;-75
2020/12/05 02:23:21;;;;;;;71.77;25.68;;;;;;;-1.44;100.00;100403.78;1722522;82;21125;-74
2020/12/05 02:26:02;;;;;;;77.97;26.25;;;;;;;-1.44;100.00;100403.26;1701875;83;21034;-76
2020/12/05 02:28:30;;;;;;;85.90;25.60;;;;;;;-1.41;100.00;100406.87;1726099;82;21466;-75
2020/12/05 02:30:58;;;;;;;83.15;26.42;;;;;;;-1.42;100.00;100406.56;1724501;82;21073;-76
2020/12/05 02:33:25;;;;;;;72.22;22.30;;;;;;;-1.42;100.00;100404.39;1755502;81;22122;-76
2020/12/05 02:35:53;;;;;;;73.75;25.60;;;;;;;-1.40;100.00;100399.61;1738072;82;21141;-75
2020/12/05 02:38:48;;;;;;;72.00;26.07;;;;;;;-1.41;100.00;100401.48;1725396;83;21580;-76
2020/12/05 02:41:15;;;;;;;71.87;26.20;;;;;;;-1.41;100.00;100401.48;1738183;82;20948;-76
2020/12/05 02:43:42;;;;;;;72.30;24.12;;;;;;;-1.44;100.00;100404.61;1725457;83;21156;-76
2020/12/05 02:46:10;;;;;;;70.35;24.92;;;;;;;-1.45;100.00;100397.56;1713355;82;22235;-77
2020/12/05 02:48:37;;;;;;;60.95;22.37;;;;;;;-1.46;100.00;100387.84;1698732;83;20958;-77
2020/12/05 02:51:05;;;;;;;65.28;20.27;;;;;;;-1.50;100.00;100392.52;1737936;82;21479;-76
2020/12/05 02:53:33;;;;;;;62.35;21.60;;;;;;;-1.54;100.00;100393.48;1755349;81;21616;-76
2020/12/05 02:56:01;;;;;;;65.12;21.40;;;;;;;-1.53;100.00;100397.82;1738176;82;20991;-76
2020/12/05 02:58:28;;;;;;;63.73;22.93;;;;;;;-1.54;100.00;100398.04;1738100;82;21378;-76
2020/12/05 03:00:56;;;;;;;58.00;21.15;;;;;;;-1.54;100.00;100398.86;1725334;83;21542;-76
2020/12/05 03:03:24;;;;;;;55.80;20.85;;;;;;;-1.54;100.00;100406.11;1698464;83;21133;-75
2020/12/05 03:05:52;;;;;;;55.75;20.68;;;;;;;-1.57;100.00;100401.16;1725342;83;21592;-76
2020/12/05 03:08:20;;;;;;;62.50;21.73;;;;;;;-1.61;100.00;100403.45;1725356;83;21058;-73
2020/12/05 03:10:47;;;;;;;55.80;20.97;;;;;;;-1.63;100.00;100408.23;1725344;83;21221;-73
2020/12/05 03:13:14;;;;;;;62.93;21.05;;;;;;;-1.63;100.00;100407.41;1725326;83;21130;-76
2020/12/05 03:15:42;;;;;;;61.18;21.33;;;;;;;-1.63;100.00;100404.72;1725319;83;21573;-77
2020/12/05 03:18:10;;;;;;;60.55;22.40;;;;;;;-1.61;100.00;100410.70;1725385;83;21065;-73
2020/12/05 03:20:37;;;;;;;69.95;21.12;;;;;;;-1.60;100.00;100415.88;1725375;83;21078;-74
2020/12/05 03:23:05;;;;;;;62.17;20.82;;;;;;;-1.59;100.00;100405.94;1729584;81;21222;-72
2020/12/05 03:25:32;;;;;;;63.02;21.33;;;;;;;-1.59;100.00;100416.19;1738214;81;21085;-72
2020/12/05 03:28:00;;;;;;;55.35;20.72;;;;;;;-1.60;100.00;100413.70;1695826;84;21195;-76
2020/12/05 03:30:28;;;;;;;62.17;21.50;;;;;;;-1.60;100.00;100412.36;1724536;82;20954;-75
2020/12/05 03:32:56;;;;;;;62.75;21.10;;;;;;;-1.60;100.00;100408.32;1706173;84;21557;-75
2020/12/05 03:35:26;;;;;;;53.65;21.17;;;;;;;-1.58;100.00;100398.16;1706176;83;21137;-76
2020/12/05 03:37:55;;;;;;;58.45;21.27;;;;;;;-1.59;100.00;100385.22;1706180;84;21038;-76
2020/12/05 03:40:23;;;;;;;51.33;19.67;;;;;;;-1.60;100.00;100387.61;1706164;84;20971;-76
2020/12/05 03:42:51;;;;;;;51.35;20.95;;;;;;;-1.59;100.00;100389.78;1706133;83;21176;-76
2020/12/05 03:45:19;;;;;;;54.38;20.37;;;;;;;-1.63;100.00;100393.42;1706143;84;21082;-77
2020/12/05 03:47:46;;;;;;;44.13;18.82;;;;;;;-1.66;100.00;100393.85;1706237;84;21394;-76
2020/12/05 03:50:14;;;;;;;48.65;18.35;;;;;;;-1.67;100.00;100399.76;1706221;84;21564;-77
2020/12/05 03:52:42;;;;;;;41.88;17.73;;;;;;;-1.68;100.00;100400.80;1706281;84;20979;-76
2020/12/05 03:55:11;;;;;;;47.40;16.30;;;;;;;-1.70;100.00;100410.13;1705207;83;21177;-76
2020/12/05 03:57:39;;;;;;;38.42;15.45;;;;;;;-1.72;100.00;100408.17;1705582;84;21066;-76
2020/12/05 04:00:06;;;;;;;44.95;17.75;;;;;;;-1.76;100.00;100415.05;1697612;83;22154;-75
2020/12/05 04:02:34;;;;;;;40.52;15.98;;;;;;;-1.78;100.00;100418.48;1689439;85;21030;-73
2020/12/05 04:05:02;;;;;;;43.15;16.12;;;;;;;-1.82;100.00;100410.52;1708300;83;21047;-73
2020/12/05 04:07:30;;;;;;;43.63;16.85;;;;;;;-1.86;100.00;100411.47;1723921;83;20938;-73
2020/12/05 04:09:57;;;;;;;42.17;17.15;;;;;;;-1.86;100.00;100426.27;1689513;85;20958;-73
2020/12/05 04:12:25;;;;;;;46.55;18.45;;;;;;;-1.87;100.00;100419.76;1708339;83;21387;-73
2020/12/05 04:14:53;;;;;;;44.13;17.50;;;;;;;-1.88;100.00;100416.77;1723924;83;21027;-75
2020/12/05 04:17:21;;;;;;;37.73;16.55;;;;;;;-1.89;100.00;100414.59;1712070;83;21046;-75
2020/12/05 04:19:49;;;;;;;38.35;15.65;;;;;;;-1.89;100.00;100427.22;1715148;83;22054;-75
2020/12/05 04:22:16;;;;;;;46.75;18.23;;;;;;;-1.91;100.00;100423.39;1715301;83;21073;-75
2020/12/05 04:24:44;;;;;;;48.68;15.90;;;;;;;-1.92;100.00;100419.05;1704026;84;21342;-75
2020/12/05 04:27:12;;;;;;;36.98;15.53;;;;;;;-1.93;100.00;100429.51;1724385;83;21033;-75
2020/12/05 04:29:40;;;;;;;40.35;15.95;;;;;;;-1.95;100.00;100428.07;1742606;81;21098;-76
2020/12/05 04:32:07;;;;;;;43.42;18.40;;;;;;;-1.97;100.00;100429.63;1743269;82;21018;-76
2020/12/05 04:34:35;;;;;;;42.33;15.95;;;;;;;-1.97;100.00;100422.90;1743324;82;21061;-76
2020/12/05 04:37:02;;;;;;;47.95;15.98;;;;;;;-1.95;100.00;100438.31;1743287;82;21285;-76
2020/12/05 04:39:30;;;;;;;41.15;17.23;;;;;;;-1.93;100.00;100427.34;1743230;82;21301;-76
2020/12/05 04:41:57;;;;;;;41.88;16.57;;;;;;;-1.96;100.00;100429.94;1743270;82;21101;-75
2020/12/05 04:44:25;;;;;;;39.10;16.12;;;;;;;-1.95;100.00;100433.45;1743217;82;21073;-75
2020/12/05 04:46:53;;;;;;;38.98;16.40;;;;;;;-1.95;100.00;100424.03;1743292;81;21014;-77
2020/12/05 04:49:22;;;;;;;47.00;13.45;;;;;;;-1.98;100.00;100446.81;1718435;82;21214;-76
2020/12/05 04:51:53;;;;;;;41.48;16.67;;;;;;;-2.00;100.00;100438.13;1743184;82;21053;-78
2020/12/05 04:54:25;;;;;;;42.15;17.82;;;;;;;-2.03;100.00;100436.68;1743302;82;21038;-77
2020/12/05 04:56:56;;;;;;;51.33;17.75;;;;;;;-2.02;100.00;100440.20;1743266;82;21121;-77
2020/12/05 04:59:24;;;;;;;40.52;16.30;;;;;;;-2.02;100.00;100438.85;1743300;82;21090;-77
2020/12/05 05:01:52;;;;;;;41.48;16.15;;;;;;;-2.02;100.00;100439.68;1743272;82;21434;-77
2020/12/05 05:04:20;;;;;;;35.10;13.18;;;;;;;-2.02;100.00;100465.76;1718219;82;21624;-77
2020/12/05 05:06:47;;;;;;;39.95;14.47;;;;;;;-2.04;100.00;100438.23;1718171;82;21085;-78
2020/12/05 05:09:15;;;;;;;43.58;16.50;;;;;;;-2.08;100.00;100444.56;1718286;82;20959;-76
2020/12/05 05:11:56;;;;;;;43.83;17.80;;;;;;;-2.11;100.00;100447.67;1743267;82;21073;-78
2020/12/05 05:14:33;;;;;;;44.60;16.87;;;;;;;-2.08;100.00;100449.94;1743390;82;21428;-77
2020/12/05 05:17:05;;;;;;;95.47;20.43;;;;;;;-2.10;100.00;100453.87;1743281;82;21038;-77
2020/12/05 05:19:36;;;;;;;40.00;17.17;;;;;;;-2.11;100.00;100444.16;1743444;82;21141;-77
2020/12/05 05:22:03;;;;;;;48.98;18.48;;;;;;;-2.11;100.00;100450.36;1742984;82;20969;-75
2020/12/05 05:24:31;;;;;;;47.48;18.50;;;;;;;-2.13;100.00;100449.75;1743273;82;21143;-78
2020/12/05 05:27:05;;;;;;;45.83;17.75;;;;;;;-2.12;100.00;100443.84;1743242;82;21268;-78
2020/12/05 05:29:41;;;;;;;42.75;16.10;;;;;;;-2.13;100.00;100445.71;1748733;81;21582;-79
2020/12/05 05:32:16;;;;;;;37.20;15.75;;;;;;;-2.12;100.00;100451.40;1750512;82;21498;-79
2020/12/05 05:34:41;;;;;;;36.17;16.17;;;;;;;-2.13;100.00;100455.13;1750249;82;20984;-82
2020/12/05 05:37:16;;;;;;;44.58;17.40;;;;;;;-2.15;100.00;100463.92;1750516;82;20976;-77
2020/12/05 05:39:47;;;;;;;38.25;16.55;;;;;;;-2.17;100.00;100457.93;1750524;81;22275;-74
2020/12/05 05:42:36;;;;;;;41.02;17.52;;;;;;;-2.16;100.00;100459.58;1750429;82;20994;-75
2020/12/05 05:45:26;;;;;;;45.35;16.93;;;;;;;-2.14;100.00;100469.61;1750515;82;21476;-78
2020/12/05 05:48:02;;;;;;;40.15;16.32;;;;;;;-2.11;100.00;100465.16;1750392;82;21042;-80
2020/12/05 05:50:35;;;;;;;48.42;17.70;;;;;;;-2.08;100.00;100463.39;1728227;82;21611;-78
2020/12/05 05:53:05;;;;;;;52.05;18.20;;;;;;;-2.10;100.00;100464.13;1681811;84;21386;-84
2020/12/05 05:55:47;;;;;;;47.43;18.12;;;;;;;-2.10;100.00;100462.78;1691017;84;21599;-74
2020/12/05 05:58:17;;;;;;;45.20;17.42;;;;;;;-2.10;100.00;100464.13;1690971;84;20959;-77
2020/12/05 06:00:50;;;;;;;47.93;18.45;;;;;;;-2.10;100.00;100456.57;1691014;84;21102;-76
2020/12/05 06:03:22;;;;;;;;;;;;;;;-2.10;100.00;100460.09;1704987;83;21582;-75
2020/12/05 06:05:52;;;;;;;44.10;17.97;;;;;;;-2.08;100.00;100465.26;1670528;86;21396;-76
2020/12/05 06:08:21;;;;;;;51.98;19.60;;;;;;;-2.09;100.00;100460.91;1720454;83;20962;-76
2020/12/05 06:11:01;;;;;;;42.65;19.60;;;;;;;-2.06;100.00;100467.22;1724807;82;20939;-78
2020/12/05 06:13:31;;;;;;;49.77;20.15;;;;;;;-2.06;100.00;100458.63;1725481;82;21006;-79
2020/12/05 06:16:00;;;;;;;46.88;18.07;;;;;;;-2.05;100.00;100465.66;1750387;82;20947;-73
2020/12/05 06:18:28;;;;;;;41.68;18.77;;;;;;;-2.04;100.00;100472.70;1750473;82;22262;-78
2020/12/05 06:20:58;;;;;;;41.35;17.02;;;;;;;-2.05;100.00;100466.19;1750334;82;21092;-79
2020/12/05 06:23:46;;;;;;;43.23;19.70;;;;;;;-2.05;100.00;100468.36;1746370;82;21466;-73
2020/12/05 06:26:25;;;;;;;45.88;18.90;;;;;;;-2.04;100.00;100474.56;1696039;83;21160;-74
2020/12/05 06:28:52;;;;;;;36.77;16.27;;;;;;;-2.02;100.00;100488.11;1721037;83;21536;-75
2020/12/05 06:31:41;;;;;;;41.08;17.30;;;;;;;-2.02;100.00;100489.98;1722237;83;21527;-75
2020/12/05 06:34:12;;;;;;;46.80;18.25;;;;;;;-2.05;100.00;100496.61;1722553;83;20955;-76
2020/12/05 06:36:41;;;;;;;50.98;20.05;;;;;;;-2.05;100.00;100503.33;1700227;83;20998;-76
2020/12/05 06:39:12;;;;;;;48.63;20.23;;;;;;;-2.03;100.00;100515.23;1722514;83;20999;-76
2020/12/05 06:41:46;;;;;;;38.33;17.77;;;;;;;-2.05;100.00;100512.75;1722612;83;20959;-74
2020/12/05 06:44:36;;;;;;;45.23;18.17;;;;;;;-2.05;100.00;100507.89;1722696;83;21505;-76
2020/12/05 06:47:07;;;;;;;45.00;18.57;;;;;;;-2.07;100.00;100512.13;1722485;83;21224;-77
2020/12/05 06:49:44;;;;;;;45.10;18.70;;;;;;;-2.06;100.00;100498.98;1722680;83;21609;-78
2020/12/05 06:52:30;;;;;;;49.58;19.65;;;;;;;-2.04;100.00;100503.64;1722564;83;21014;-77
2020/12/05 06:55:10;;;;;;;47.78;18.32;;;;;;;-2.02;100.00;100508.30;1722602;83;20970;-76
2020/12/05 06:57:38;;;;;;;44.75;18.95;;;;;;;-2.00;100.00;100518.33;1722229;82;21424;-77
2020/12/05 07:00:25;;;;;;;41.48;17.82;;;;;;;-1.98;100.00;100519.47;1735180;82;20982;-77
2020/12/05 07:03:08;;;;;;;38.23;16.05;;;;;;;-1.97;100.00;100516.25;1722868;81;21564;-78
2020/12/05 07:05:42;;;;;;;39.45;16.95;;;;;;;-1.96;100.00;100524.13;1752386;81;21081;-76
2020/12/05 07:08:29;;;;;;;43.65;18.05;;;;;;;-1.97;100.00;100530.54;1752422;81;21200;-76
2020/12/05 07:11:00;;;;;;;38.20;16.67;;;;;;;-2.00;100.00;100526.41;1752539;81;22003;-76
2020/12/05 07:13:32;;;;;;;42.53;17.35;;;;;;;-2.00;100.00;100528.27;1747999;81;21019;-77
2020/12/05 07:16:23;;;;;;;39.33;15.30;;;;;;;-2.00;100.00;100533.13;1734067;81;20998;-77
2020/12/05 07:18:54;;;;;;;55.30;21.87;;;;;;;-1.99;100.00;100532.61;1727222;81;21588;-78
2020/12/05 07:21:22;;;;;;;42.65;17.23;;;;;;;-2.00;100.00;100532.30;1734765;81;21183;-77
2020/12/05 07:23:51;;;;;;;38.00;16.73;;;;;;;-2.01;100.00;100551.66;1743915;81;21295;-76
2020/12/05 07:26:18;;;;;;;48.10;16.95;;;;;;;-2.01;100.00;100546.80;1752433;81;21084;-77
2020/12/05 07:28:47;;;;;;;48.80;17.60;;;;;;;-1.98;100.00;100548.23;1739344;81;21246;-78
2020/12/05 07:31:17;;;;;;;47.33;19.20;;;;;;;-1.96;100.00;100555.59;1726848;81;21096;-78
2020/12/05 07:33:45;;;;;;;44.73;18.32;;;;;;;-1.95;100.00;100551.86;1723178;83;21118;-77
2020/12/05 07:36:15;;;;;;;42.73;17.77;;;;;;;-1.97;100.00;100556.63;1723519;83;21207;-73
2020/12/05 07:38:44;;;;;;;43.10;18.27;;;;;;;-1.96;100.00;100560.97;1710281;82;21038;-79
2020/12/05 07:41:19;;;;;;;49.35;18.50;;;;;;;-1.95;100.00;100564.80;1696299;84;21168;-77
2020/12/05 07:43:48;;;;;;;42.43;16.55;;;;;;;-1.91;100.00;100563.34;1709056;83;21129;-77
2020/12/05 07:46:16;;;;;;;43.75;18.10;;;;;;;-1.88;100.00;100576.37;1723666;83;21022;-74
2020/12/05 07:48:44;;;;;;;43.63;17.27;;;;;;;-1.87;100.00;100578.55;1723592;83;21191;-77
2020/12/05 07:51:13;;;;;;;41.60;18.52;;;;;;;-1.83;100.00;100576.58;1723693;83;21146;-76
2020/12/05 07:53:41;;;;;;;42.13;17.98;;;;;;;-1.81;100.00;100579.06;1723731;83;21042;-76
2020/12/05 07:56:15;;;;;;;37.63;17.20;;;;;;;-1.79;100.00;100575.64;1723761;83;21717;-78
2020/12/05 07:58:54;;;;;;;;;;;;;;;-1.80;100.00;100582.06;1727009;83;21026;-77
2020/12/05 08:01:59;;;;;;;40.83;16.12;;;;;;;-1.80;100.00;100588.79;1725113;83;21062;-76
2020/12/05 08:04:42;;;;;;;37.45;15.68;;;;;;;-1.80;100.00;100594.17;1725407;83;21092;-77
2020/12/05 08:07:27;;;;;;;39.85;16.55;;;;;;;-1.80;100.00;100584.75;1693159;83;21509;-75
2020/12/05 08:09:56;;;;;;;36.85;16.50;;;;;;;-1.84;100.00;100592.42;1710829;83;21128;-77
2020/12/05 08:12:57;;;;;;;41.13;16.90;;;;;;;-1.89;100.00;100594.91;1712429;83;21156;-77
2020/12/05 08:15:24;;;;;;;42.53;17.75;;;;;;;-1.86;100.00;100593.66;1701013;82;23553;-77
2020/12/05 08:17:52;;;;;;;39.78;16.57;;;;;;;-1.83;100.00;100602.67;1708785;83;21149;-75
2020/12/05 08:20:19;;;;;;;37.15;15.58;;;;;;;-1.81;100.00;100601.94;1725264;83;21121;-77
2020/12/05 08:22:47;;;;;;;36.40;14.60;;;;;;;-1.80;100.00;100597.70;1725331;83;20951;-77
2020/12/05 08:25:14;;;;;;;37.85;17.40;;;;;;;-1.78;100.00;100596.97;1725176;83;21576;-76
2020/12/05 08:27:41;;;;;;;46.23;19.35;;;;;;;-1.79;100.00;100597.17;1725300;83;21436;-78
2020/12/05 08:30:09;;;;;;;42.62;15.78;;;;;;;-1.78;100.00;100599.66;1750596;81;21038;-77
2020/12/05 08:32:37;;;;;;;39.88;17.45;;;;;;;-1.73;100.00;100611.11;1768333;81;21566;-78
2020/12/05 08:35:09;;;;;;;33.28;14.60;;;;;;;-1.76;100.00;100609.70;1768434;81;21089;-74
2020/12/05 08:37:42;;;;;;;38.80;16.50;;;;;;;-1.81;100.00;100604.63;1768447;81;21136;-77
2020/12/05 08:40:17;;;;;;;44.77;18.50;;;;;;;-1.84;100.00;100610.43;1768452;81;22622;-77
2020/12/05 08:42:48;;;;;;;35.83;16.50;;;;;;;-1.81;100.00;100607.33;1768376;81;20987;-78
2020/12/05 08:45:17;;;;;;;46.37;17.77;;;;;;;-1.80;100.00;100605.77;1768450;81;21061;-79
2020/12/05 08:47:51;;;;;;;50.43;19.98;;;;;;;-1.80;100.00;100601.73;1769341;81;21518;-77
2020/12/05 08:50:34;;;;;;;41.15;17.05;;;;;;;-1.79;100.00;100599.34;1768849;81;21038;-77
2020/12/05 08:53:03;;;;;;;43.20;16.93;;;;;;;-1.78;100.00;100598.83;1768329;81;21778;-76
2020/12/05 08:55:31;;;;;;;45.52;16.67;;;;;;;-1.79;100.00;100592.63;1768408;81;21196;-76
2020/12/05 08:58:01;;;;;;;47.03;17.37;;;;;;;-1.78;100.00;100598.83;1763450;81;21410;-75
2020/12/05 09:00:31;;;;;;;51.58;18.05;;;;;;;-1.78;100.00;100588.06;1740659;81;20942;-79
2020/12/05 09:02:59;;;;;;;39.08;17.60;;;;;;;-1.82;100.00;100588.17;1768310;81;21149;-78
2020/12/05 09:05:27;;;;;;;42.73;16.15;;;;;;;-1.81;100.00;100585.79;1768220;81;21438;-76
2020/12/05 09:08:00;;;;;;;46.53;18.95;;;;;;;-1.83;100.00;100585.17;1768245;81;21074;-75
2020/12/05 09:10:28;;;;;;;;;;;;;;;-1.87;100.00;100586.11;1770993;81;20927;-76
2020/12/05 09:13:07;;;;;;;36.80;15.23;;;;;;;-1.88;100.00;100583.11;1768309;81;21961;-76
2020/12/05 09:15:38;;;;;;;40.33;17.90;;;;;;;-1.89;100.00;100590.88;1768431;81;21129;-76
2020/12/05 09:18:06;;;;;;;39.20;15.55;;;;;;;-1.93;100.00;100590.98;1768364;81;21366;-76
2020/12/05 09:20:34;;;;;;;41.92;16.75;;;;;;;-1.94;100.00;100585.80;1768330;81;21069;-76
2020/12/05 09:23:02;;;;;;;42.90;16.50;;;;;;;-1.93;100.00;100583.42;1718489;81;20947;-75
2020/12/05 09:25:32;;;;;;;43.10;17.10;;;;;;;-1.91;100.00;100587.56;1768352;81;21497;-76
2020/12/05 09:28:02;;;;;;;41.55;15.50;;;;;;;-1.89;100.00;100590.05;1768296;81;21145;-73
2020/12/05 09:30:30;;;;;;;38.70;16.52;;;;;;;-1.90;100.00;100585.18;1742562;81;22270;-74
2020/12/05 09:32:58;;;;;;;36.30;15.70;;;;;;;-1.89;100.00;100590.88;1768441;81;21509;-74
2020/12/05 09:35:25;;;;;;;37.05;16.52;;;;;;;-1.87;100.00;100590.66;1768834;81;20943;-70
2020/12/05 09:37:53;;;;;;;37.65;16.45;;;;;;;-1.85;100.00;100588.59;1768965;81;21549;-77
2020/12/05 09:40:21;;;;;;;38.98;16.17;;;;;;;-1.82;100.00;100593.55;1768889;81;21212;-77
2020/12/05 09:42:50;;;;;;;35.10;16.07;;;;;;;-1.82;100.00;100594.91;1742927;81;21222;-73
2020/12/05 09:45:17;;;;;;;31.17;13.62;;;;;;;-1.84;100.00;100593.77;1755019;81;21140;-79
2020/12/05 09:47:45;;;;;;;38.13;15.72;;;;;;;-1.88;100.00;100597.91;1755937;81;21161;-78
2020/12/05 09:50:14;;;;;;;40.43;17.75;;;;;;;-1.93;100.00;100599.57;1756021;80;21580;-76
2020/12/05 09:52:43;;;;;;;34.10;14.33;;;;;;;-1.96;100.00;100593.26;1756052;81;21168;-77
2020/12/05 09:55:11;;;;;;;29.12;11.48;;;;;;;-2.02;100.00;100586.33;1756151;81;21361;-78
2020/12/05 09:57:40;;;;;;;35.55;13.95;;;;;;;-2.04;100.00;100599.68;1755817;81;21157;-78
2020/12/05 10:00:10;;;;;;;26.37;12.47;;;;;;;-2.10;100.00;100599.98;1737864;82;20898;-79
2020/12/05 10:02:38;;;;;;;31.80;15.13;;;;;;;-2.11;100.00;100600.20;1738056;82;21623;-78
2020/12/05 10:05:07;;;;;;;35.13;15.65;;;;;;;-2.14;100.00;100614.89;1737985;82;21567;-76
2020/12/05 10:07:35;;;;;;;33.78;15.10;;;;;;;-2.13;100.00;100611.69;1737752;81;22303;-77
2020/12/05 10:10:04;;;;;;;32.58;14.85;;;;;;;-2.12;100.00;100610.13;1738236;82;21162;-74
2020/12/05 10:12:33;;;;;;;32.70;15.58;;;;;;;-2.08;100.00;100609.20;1738032;82;21218;-77
2020/12/05 10:15:02;;;;;;;32.10;14.95;;;;;;;-2.04;100.00;100613.96;1738160;82;21139;-76
2020/12/05 10:17:30;;;;;;;39.25;16.55;;;;;;;-2.01;100.00;100619.45;1739931;80;21130;-76
2020/12/05 10:19:58;;;;;;;34.98;15.60;;;;;;;-2.01;100.00;100628.86;1783186;80;21636;-78
2020/12/05 10:22:27;;;;;;;34.15;13.18;;;;;;;-2.02;100.00;100626.69;1786185;80;21139;-77
2020/12/05 10:24:54;;;;;;;34.30;15.45;;;;;;;-2.03;100.00;100618.83;1756301;81;21141;-77
2020/12/05 10:27:22;;;;;;;37.40;16.17;;;;;;;-2.06;100.00;100627.31;1755966;81;21985;-80
2020/12/05 10:29:49;;;;;;;33.65;14.28;;;;;;;-2.06;100.00;100609.30;1755938;80;21666;-78
2020/12/05 10:32:18;;;;;;;33.63;14.98;;;;;;;-2.03;100.00;100613.44;1755364;81;21381;-78
2020/12/05 10:34:46;;;;;;;33.53;14.80;;;;;;;-2.05;100.00;100605.58;1755967;81;20947;-78
2020/12/05 10:37:13;;;;;;;28.77;12.43;;;;;;;-2.06;100.00;100604.44;1755682;81;20986;-76
2020/12/05 10:39:41;;;;;;;36.40;16.67;;;;;;;-2.06;100.00;100610.65;1755544;81;21165;-79
2020/12/05 10:42:08;;;;;;;36.50;13.90;;;;;;;-2.03;100.00;100613.44;1748404;81;21096;-78
2020/12/05 10:44:38;;;;;;;30.17;13.80;;;;;;;-2.03;100.00;100610.75;1734745;82;21059;-79
2020/12/05 10:47:06;;;;;;;32.00;13.20;;;;;;;-2.06;100.00;100609.30;1735204;82;21225;-79
2020/12/05 10:49:34;;;;;;;32.48;14.45;;;;;;;-2.03;100.00;100612.09;1735049;82;21134;-71
2020/12/05 10:52:01;;;;;;;31.17;14.23;;;;;;;-2.00;100.00;100613.03;1734874;82;21178;-73
2020/12/05 10:54:29;;;;;;;34.45;15.72;;;;;;;-1.96;100.00;100614.79;1735634;80;21156;-73
2020/12/05 10:56:58;;;;;;;33.35;13.80;;;;;;;-1.94;100.00;100619.45;1735201;80;21413;-72
2020/12/05 10:59:25;;;;;;;37.80;14.50;;;;;;;-1.89;100.00;100620.99;1733506;82;21134;-72
2020/12/05 11:01:55;;;;;;;36.05;13.40;;;;;;;-1.91;100.00;100623.06;1733213;82;21238;-72
2020/12/05 11:04:23;;;;;;;29.05;12.45;;;;;;;-1.95;100.00;100621.31;1733302;82;21648;-74
2020/12/05 11:06:51;;;;;;;28.73;12.55;;;;;;;-1.94;100.00;100619.45;1733320;82;21510;-73
2020/12/05 11:09:19;;;;;;;28.07;14.20;;;;;;;-1.92;100.00;100621.41;1733391;82;21497;-73
2020/12/05 11:11:50;;;;;;;30.55;13.40;;;;;;;-1.91;100.00;100617.69;1733085;82;21522;-74
2020/12/05 11:14:17;;;;;;;27.07;11.68;;;;;;;-1.86;100.00;100624.62;1734578;80;21084;-70
2020/12/05 11:16:45;;;;;;;26.05;11.65;;;;;;;-1.85;100.00;100632.48;1762375;81;21137;-72